Погода Арандишна 2 недели

Окаванго, Намибия

25 февраля-09 марта
  • 25февраля
    Сегодня
    +15°
    +27°
    Небольшая облачность
    ВремяПогодаТемператураВлажностьДавлениеВетер, м/сВероятность осадков
    02:00Ясно и безоблачно+18°C65 %711 мм0.8 м/с2 %
    05:00Ясно и безоблачно+16°C84 %710 мм1.7 м/с5 %
    08:00Ясно и безоблачно+16°C72 %711 мм1.6 м/с5 %
    11:00Ясно и безоблачно+24°C28 %713 мм2.8 м/с5 %
    14:00Небольшая облачность+27°C30 %712 мм5.4 м/с5 %
    17:00Практически безоблачно+25°C41 %711 мм5.2 м/с5 %
    20:00Ясно и безоблачно+20°C52 %711 мм1.7 м/с5 %
    23:00Ясно и безоблачно+19°C60 %711 мм1.0 м/с5 %
  • 26февраля
    Понедельник
    +15°
    +26°
    Ясно и безоблачно
    ВремяПогодаТемператураВлажностьДавлениеВетер, м/сВероятность осадков
    02:00Ясно и безоблачно+18°C67 %710 мм2.0 м/с5 %
    05:00Ясно и безоблачно+16°C74 %709 мм2.8 м/с5 %
    08:00Ясно и безоблачно+17°C64 %710 мм2.9 м/с5 %
    11:00Ясно и безоблачно+23°C42 %712 мм3.7 м/с5 %
    14:00Ясно и безоблачно+26°C35 %711 мм6.0 м/с5 %
    17:00Ясно и безоблачно+24°C41 %710 мм4.9 м/с5 %
    20:00Ясно и безоблачно+19°C61 %710 мм2.4 м/с5 %
    23:00Ясно и безоблачно+18°C71 %710 мм0.5 м/с5 %
  • 27февраля
    Вторник
    +17°
    +27°
    Ясно и безоблачно
    ВремяПогодаТемператураВлажностьДавлениеВетер, м/сВероятность осадков
    02:00Ясно и безоблачно+16°C83 %709 мм0.7 м/с5 %
    05:00Ясно и безоблачно+16°C83 %708 мм1.6 м/с5 %
    08:00Ясно и безоблачно+17°C66 %709 мм1.6 м/с5 %
    11:00Ясно и безоблачно+24°C45 %710 мм3.4 м/с5 %
    14:00Ясно и безоблачно+26°C37 %709 мм5.2 м/с5 %
    17:00Ясно и безоблачно+24°C43 %708 мм5.1 м/с4 %
    20:00Ясно и безоблачно+20°C57 %709 мм1.6 м/с5 %
    23:00Ясно и безоблачно+20°C62 %709 мм1.7 м/с7 %
  • 28февраля
    Среда
    +19°
    +29°
    Ясно и безоблачно
    ВремяПогодаТемператураВлажностьДавлениеВетер, м/сВероятность осадков
    02:00Ясно и безоблачно+19°C64 %708 мм1.2 м/с5 %
    05:00Ясно и безоблачно+18°C70 %708 мм1.4 м/с10 %
    08:00Ясно и безоблачно+19°C61 %709 мм1.2 м/с15 %
    11:00Ясно и безоблачно+27°C38 %710 мм3.5 м/с12 %
    14:00Ясно и безоблачно+28°C37 %708 мм5.6 м/с10 %
    17:00Ясно и безоблачно+28°C39 %708 мм4.8 м/с14 %
    20:00Ясно и безоблачно+22°C60 %709 мм3.9 м/с37 %
    23:00Практически безоблачно+22°C65 %710 мм0.5 м/с29 %
  • 29февраля
    Четверг
    +22°
    +33°
    Ясно и безоблачно
    ВремяПогодаТемператураВлажностьДавлениеВетер, м/сВероятность осадков
    02:00Ясно и безоблачно+22°C71 %709 мм2.4 м/с23 %
    05:00Ясно и безоблачно+21°C76 %708 мм1.1 м/с27 %
    08:00Ясно и безоблачно+22°C62 %709 мм0.9 м/с16 %
    11:00Ясно и безоблачно+28°C41 %710 мм4.0 м/с24 %
    14:00Ясно и безоблачно+31°C37 %709 мм5.8 м/с28 %
    17:00Ясно и безоблачно+29°C39 %708 мм4.4 м/с37 %
    20:00Ясно и безоблачно+24°C52 %709 мм2.3 м/с23 %
    23:00Ясно и безоблачно+22°C60 %710 мм0.1 м/с21 %
Мы используем cookies
Соглашаюсь